createdAt,value
2019-01-21T00:01:08.426Z,100841.39
2019-01-21T00:03:38.066Z,100841.95
2019-01-21T00:06:07.717Z,100841.70
2019-01-21T00:08:37.295Z,100841.70
2019-01-21T00:11:06.946Z,100845.87
2019-01-21T00:13:36.261Z,100852.52
2019-01-21T00:16:05.657Z,100849.62
2019-01-21T00:18:35.020Z,100855.62
2019-01-21T00:21:04.442Z,100851.24
2019-01-21T00:23:34.105Z,100854.18
2019-01-21T00:26:03.757Z,100849.96
2019-01-21T00:28:33.430Z,100849.22
2019-01-21T00:31:03.108Z,100849.88
2019-01-21T00:33:33.052Z,100850.59
2019-01-21T00:36:02.866Z,100854.37
2019-01-21T00:38:33.055Z,100851.78
2019-01-21T00:41:02.968Z,100861.34
2019-01-21T00:43:33.190Z,100861.09
2019-01-21T00:46:03.208Z,100865.41
2019-01-21T00:48:33.019Z,100866.11
2019-01-21T00:51:02.870Z,100868.73
2019-01-21T00:53:33.170Z,100873.06
2019-01-21T00:56:03.496Z,100873.67
2019-01-21T00:58:33.605Z,100872.19
2019-01-21T01:01:03.839Z,100872.16
2019-01-21T01:03:33.608Z,100868.73
2019-01-21T01:06:03.865Z,100872.81
2019-01-21T01:08:33.875Z,100876.27
2019-01-21T01:11:03.996Z,100875.52
2019-01-21T01:13:34.432Z,100873.67
2019-01-21T01:16:05.161Z,100872.22
2019-01-21T01:18:35.076Z,100876.83
2019-01-21T01:21:05.499Z,100873.62
2019-01-21T01:23:35.422Z,100877.41
2019-01-21T01:26:07.094Z,100878.55
2019-01-21T01:28:38.029Z,100885.03
2019-01-21T01:31:07.845Z,100883.50
2019-01-21T01:33:38.767Z,100881.67
2019-01-21T01:36:08.607Z,100889.98
2019-01-21T01:38:39.310Z,100894.71
2019-01-21T01:41:09.021Z,100891.64
2019-01-21T01:43:39.039Z,100894.43
2019-01-21T01:46:08.852Z,100893.99
2019-01-21T01:48:38.761Z,100900.20
2019-01-21T01:51:08.896Z,100898.59
2019-01-21T01:53:39.216Z,100893.47
2019-01-21T01:56:09.322Z,100894.50
2019-01-21T01:58:38.990Z,100892.35
2019-01-21T02:01:08.719Z,100894.41
2019-01-21T02:03:38.561Z,100898.19
2019-01-21T02:06:08.631Z,100898.30
2019-01-21T02:08:40.547Z,100903.54
2019-01-21T02:11:10.551Z,100899.61
2019-01-21T02:13:40.880Z,100904.98
2019-01-21T02:16:11.107Z,100901.86
2019-01-21T02:18:41.220Z,100897.00
2019-01-21T02:21:12.568Z,100898.39
2019-01-21T02:23:44.233Z,100894.52
2019-01-21T02:26:21.844Z,100899.81
2019-01-21T02:28:57.280Z,100896.60
2019-01-21T02:32:19.915Z,100901.27
2019-01-21T02:35:16.205Z,100904.29
2019-01-21T02:38:41.769Z,100899.80
2019-01-21T02:41:28.266Z,100896.22
2019-01-21T02:44:11.733Z,100897.45
2019-01-21T02:47:12.110Z,100897.25
2019-01-21T02:50:36.831Z,100892.58
2019-01-21T02:53:37.160Z,100899.06
2019-01-21T02:56:38.486Z,100894.05
2019-01-21T02:59:37.098Z,100898.05
2019-01-21T03:02:24.400Z,100895.75
2019-01-21T03:05:16.596Z,100884.51
2019-01-21T03:08:26.314Z,100885.58
2019-01-21T03:11:40.260Z,100886.59
2019-01-21T03:14:24.427Z,100891.72
2019-01-21T03:17:25.026Z,100893.38
2019-01-21T03:20:19.975Z,100889.80
2019-01-21T03:23:19.505Z,100890.59
2019-01-21T03:26:17.625Z,100890.70
2019-01-21T03:29:26.866Z,100890.81
2019-01-21T03:32:48.607Z,100893.13
2019-01-21T03:35:55.118Z,100893.12
2019-01-21T03:38:52.011Z,100894.11
2019-01-21T03:41:49.786Z,100899.39
2019-01-21T03:44:52.772Z,100902.83
2019-01-21T03:47:44.780Z,100901.87
2019-01-21T03:50:51.282Z,100908.09
2019-01-21T03:53:51.818Z,100903.86
2019-01-21T03:57:08.220Z,100901.31
2019-01-21T04:00:27.893Z,100902.07
2019-01-21T04:03:59.765Z,100905.73
2019-01-21T04:06:57.166Z,100910.29
2019-01-21T04:10:10.723Z,100911.29
2019-01-21T04:13:17.235Z,100909.31
2019-01-21T04:16:14.395Z,100902.06
2019-01-21T04:19:19.436Z,100903.34
2019-01-21T04:22:29.924Z,100911.87
2019-01-21T04:25:29.193Z,100908.89
2019-01-21T04:28:26.863Z,100914.78
2019-01-21T04:31:58.934Z,100917.75
2019-01-21T04:35:17.287Z,100917.46
2019-01-21T04:38:40.344Z,100923.40
2019-01-21T04:41:23.415Z,100918.44
2019-01-21T04:43:50.924Z,100922.73
2019-01-21T04:47:04.469Z,100917.92
2019-01-21T04:50:09.618Z,100919.63
2019-01-21T04:52:53.619Z,100929.87
2019-01-21T04:55:49.178Z,100919.91
2019-01-21T04:59:11.883Z,100925.50
2019-01-21T05:02:24.376Z,100920.98
2019-01-21T05:05:28.119Z,100918.10
2019-01-21T05:08:34.369Z,100925.33
2019-01-21T05:12:09.218Z,100920.19
2019-01-21T05:15:05.303Z,100921.22
2019-01-21T05:18:14.778Z,100923.03
2019-01-21T05:21:24.049Z,100926.85
2019-01-21T05:24:36.547Z,100932.27
2019-01-21T05:28:14.536Z,100932.02
2019-01-21T05:31:03.204Z,100931.96
2019-01-21T05:33:55.638Z,100936.42
2019-01-21T05:36:52.388Z,100936.61
2019-01-21T05:39:48.836Z,100933.91
2019-01-21T05:43:16.683Z,100923.87
2019-01-21T05:46:33.186Z,100929.67
2019-01-21T05:49:48.660Z,100930.88
2019-01-21T05:52:53.442Z,100935.79
2019-01-21T05:55:48.491Z,100932.23
2019-01-21T05:58:53.783Z,100931.78
2019-01-21T06:02:03.825Z,100924.27
2019-01-21T06:05:07.278Z,100926.34
2019-01-21T06:08:12.616Z,100930.84
2019-01-21T06:11:10.869Z,100929.27
2019-01-21T06:14:24.914Z,100935.34
2019-01-21T06:17:22.827Z,100935.93
2019-01-21T06:20:23.784Z,100939.03
2019-01-21T06:23:40.346Z,100943.54
2019-01-21T06:26:41.854Z,100943.72
2019-01-21T06:29:42.883Z,100945.07
2019-01-21T06:32:52.199Z,100951.47
2019-01-21T06:35:43.232Z,100951.91
2019-01-21T06:39:02.610Z,100948.45
2019-01-21T06:42:21.981Z,100946.21
2019-01-21T06:45:25.431Z,100949.76
2019-01-21T06:48:38.039Z,100957.38
2019-01-21T06:52:00.693Z,100959.91
2019-01-21T06:55:18.128Z,100962.81
2019-01-21T06:58:43.591Z,100959.30
2019-01-21T07:01:36.864Z,100969.08
2019-01-21T07:04:36.767Z,100967.50
2019-01-21T07:07:28.614Z,100971.45
2019-01-21T07:10:40.631Z,100970.83
2019-01-21T07:13:43.418Z,100970.72
2019-01-21T07:16:34.157Z,100979.92
2019-01-21T07:19:34.686Z,100972.13
2019-01-21T07:22:28.289Z,100976.30
2019-01-21T07:25:35.045Z,100976.38
2019-01-21T07:28:20.015Z,100981.02
2019-01-21T07:31:39.598Z,100974.14
2019-01-21T07:34:48.420Z,100977.36
2019-01-21T07:38:10.261Z,100972.48
2019-01-21T07:41:02.389Z,100976.54
2019-01-21T07:44:17.951Z,100976.09
2019-01-21T07:47:32.640Z,100982.17
2019-01-21T07:50:48.053Z,100976.27
2019-01-21T07:53:48.598Z,100984.59
2019-01-21T07:56:48.759Z,100979.67
2019-01-21T07:59:53.768Z,100985.78
2019-01-21T08:03:07.382Z,100985.84
2019-01-21T08:06:07.682Z,100986.75
2019-01-21T08:09:13.877Z,100990.51
2019-01-21T08:11:57.273Z,100993.39
2019-01-21T08:15:00.780Z,100999.15
2019-01-21T08:18:14.117Z,100993.30
2019-01-21T08:21:05.301Z,101003.97
2019-01-21T08:24:01.486Z,101002.89
2019-01-21T08:26:58.510Z,101003.39
2019-01-21T08:29:48.527Z,101002.43
2019-01-21T08:32:45.214Z,101007.84
2019-01-21T08:35:52.585Z,101013.69
2019-01-21T08:38:57.561Z,101014.72
2019-01-21T08:42:00.334Z,101021.84
2019-01-21T08:45:16.988Z,101024.11
2019-01-21T08:48:38.564Z,101026.00
2019-01-21T08:51:39.747Z,101032.38
2019-01-21T08:54:44.671Z,101037.77
2019-01-21T08:57:48.366Z,101039.02
2019-01-21T09:00:45.395Z,101040.56
2019-01-21T09:04:07.885Z,101032.92
2019-01-21T09:07:00.644Z,101026.20
2019-01-21T09:09:46.415Z,101037.63
2019-01-21T09:12:55.663Z,101042.47
2019-01-21T09:16:03.041Z,101039.59
2019-01-21T09:19:19.853Z,101034.34
2019-01-21T09:22:39.038Z,101028.10
2019-01-21T09:25:45.969Z,101032.34
2019-01-21T09:28:56.599Z,101030.99
2019-01-21T09:32:22.411Z,101031.84
2019-01-21T09:35:33.072Z,101039.06
2019-01-21T09:38:42.487Z,101039.42
2019-01-21T09:42:01.325Z,101054.18
2019-01-21T09:44:52.931Z,101046.08
2019-01-21T09:47:20.628Z,101050.47
2019-01-21T09:49:50.029Z,101055.14
2019-01-21T09:52:20.754Z,101052.36
2019-01-21T09:54:50.663Z,101052.08
2019-01-21T09:57:25.916Z,101047.55
2019-01-21T09:59:59.816Z,101041.70
2019-01-21T10:02:38.159Z,101042.92
2019-01-21T10:05:11.786Z,101044.77
2019-01-21T10:08:43.360Z,101041.91
2019-01-21T10:11:52.602Z,101036.31
2019-01-21T10:15:12.223Z,101038.79
2019-01-21T10:18:14.315Z,101032.34
2019-01-21T10:21:13.017Z,101044.92
2019-01-21T10:24:08.936Z,101031.95
2019-01-21T10:27:18.362Z,101025.30
2019-01-21T10:30:27.634Z,101018.95
2019-01-21T10:33:40.862Z,101021.01
2019-01-21T10:36:50.294Z,101014.88
2019-01-21T10:40:07.933Z,101021.59
2019-01-21T10:43:07.027Z,101014.61
2019-01-21T10:46:04.903Z,101018.52
2019-01-21T10:49:05.225Z,101014.70
2019-01-21T10:52:31.255Z,101006.63
2019-01-21T10:55:41.608Z,101007.47
2019-01-21T10:58:36.012Z,101010.20
2019-01-21T11:01:41.486Z,101011.56
2019-01-21T11:04:40.056Z,101014.63
2019-01-21T11:07:53.479Z,101007.08
2019-01-21T11:10:54.223Z,100995.22
2019-01-21T11:14:01.615Z,100991.16
2019-01-21T11:17:04.705Z,100988.72
2019-01-21T11:20:33.395Z,100993.06
2019-01-21T11:23:50.419Z,100998.02
2019-01-21T11:27:18.903Z,100989.05
2019-01-21T11:30:17.688Z,100986.48
2019-01-21T11:33:19.053Z,100978.58
2019-01-21T11:36:26.756Z,100979.50
2019-01-21T11:39:39.065Z,100974.53
2019-01-21T11:43:11.332Z,100970.72
2019-01-21T11:46:30.708Z,100973.50
2019-01-21T11:49:40.972Z,100972.02
2019-01-21T11:52:27.034Z,100959.77
2019-01-21T11:55:59.039Z,100965.31
2019-01-21T11:59:06.660Z,100967.02
2019-01-21T12:02:20.272Z,100951.73
2019-01-21T12:05:11.926Z,100944.42
2019-01-21T12:07:59.247Z,100941.20
2019-01-21T12:11:09.212Z,100942.75
2019-01-21T12:14:05.717Z,100939.55
2019-01-21T12:17:11.983Z,100940.75
2019-01-21T12:20:17.405Z,100934.71
2019-01-21T12:23:45.916Z,100927.38
2019-01-21T12:26:59.552Z,100920.61
2019-01-21T12:29:53.432Z,100921.70
2019-01-21T12:32:55.091Z,100922.62
2019-01-21T12:35:39.768Z,100922.62
2019-01-21T12:38:46.097Z,100924.98
2019-01-21T12:41:57.355Z,100922.83
2019-01-21T12:45:13.196Z,100922.83
2019-01-21T12:48:04.417Z,100921.48
2019-01-21T12:51:06.132Z,100904.18
2019-01-21T12:54:09.647Z,100904.18
2019-01-21T12:57:15.886Z,100887.84
2019-01-21T13:00:20.262Z,100887.84
2019-01-21T13:03:12.071Z,100891.71
2019-01-21T13:06:11.631Z,100888.22
2019-01-21T13:09:16.850Z,100882.77
2019-01-21T13:12:16.045Z,100884.41
2019-01-21T13:15:02.970Z,100864.53
2019-01-21T13:18:00.565Z,100864.53
2019-01-21T13:21:10.788Z,100858.77
2019-01-21T13:24:12.368Z,100840.97
2019-01-21T13:27:31.244Z,100840.97
2019-01-21T13:30:24.942Z,100836.45
2019-01-21T13:33:30.522Z,100829.09
2019-01-21T13:36:34.438Z,100812.00
2019-01-21T13:39:43.951Z,100817.02
2019-01-21T13:42:22.978Z,100821.46
2019-01-21T13:45:25.488Z,100821.46
2019-01-21T13:48:50.909Z,100823.00
2019-01-21T13:51:39.562Z,100826.78
2019-01-21T13:55:06.305Z,100828.78
2019-01-21T13:58:11.964Z,100830.84
2019-01-21T14:00:54.543Z,100819.98
2019-01-21T14:04:04.453Z,100822.48
2019-01-21T14:07:10.899Z,100818.50
2019-01-21T14:10:27.200Z,100818.08
2019-01-21T14:13:11.588Z,100803.02
2019-01-21T14:15:58.878Z,100796.19
2019-01-21T14:18:41.390Z,100796.19
2019-01-21T14:21:48.983Z,100812.81
2019-01-21T14:25:07.648Z,100807.55
2019-01-21T14:28:19.157Z,100807.55
2019-01-21T14:31:32.888Z,100792.66
2019-01-21T14:34:48.689Z,100792.66
2019-01-21T14:38:11.542Z,100801.17
2019-01-21T14:41:22.857Z,100784.48
2019-01-21T14:44:41.061Z,100796.82
2019-01-21T14:48:00.692Z,100781.79
2019-01-21T14:51:20.216Z,100787.90
2019-01-21T14:54:16.945Z,100786.28
2019-01-21T14:57:33.661Z,100788.06
2019-01-21T15:00:34.440Z,100786.50
2019-01-21T15:03:47.116Z,100782.98
2019-01-21T15:06:47.134Z,100773.36
2019-01-21T15:09:53.343Z,100769.36
2019-01-21T15:13:15.871Z,100771.98
2019-01-21T15:16:22.389Z,100767.77
2019-01-21T15:19:12.606Z,100774.61
2019-01-21T15:22:35.585Z,100774.61
2019-01-21T15:25:46.413Z,100769.89
2019-01-21T15:28:56.374Z,100768.80
2019-01-21T15:31:54.459Z,100767.14
2019-01-21T15:34:53.491Z,100768.67
2019-01-21T15:37:55.319Z,100768.28
2019-01-21T15:41:04.570Z,100766.02
2019-01-21T15:43:46.222Z,100766.37
2019-01-21T15:46:36.472Z,100767.67
2019-01-21T15:49:38.706Z,100765.78
2019-01-21T15:52:23.151Z,100752.47
2019-01-21T15:55:11.496Z,100761.59
2019-01-21T15:58:09.087Z,100761.59
2019-01-21T16:01:31.710Z,100756.02
2019-01-21T16:04:38.087Z,100762.42
2019-01-21T16:07:40.956Z,100764.41
2019-01-21T16:10:49.219Z,100761.80
2019-01-21T16:13:42.670Z,100771.61
2019-01-21T16:17:02.394Z,100771.61
2019-01-21T16:19:53.868Z,100772.09
2019-01-21T16:23:02.881Z,100767.37
2019-01-21T16:25:58.188Z,100767.37
2019-01-21T16:29:17.785Z,100776.98
2019-01-21T16:32:30.815Z,100763.70
2019-01-21T16:35:21.567Z,100763.88
2019-01-21T16:38:41.235Z,100763.88
2019-01-21T16:41:46.146Z,100765.91
2019-01-21T16:44:15.616Z,100770.00
2019-01-21T16:46:45.889Z,100770.00
2019-01-21T16:49:15.739Z,100773.88
2019-01-21T16:51:45.174Z,100772.80
2019-01-21T16:54:14.614Z,100772.00
2019-01-21T16:56:44.077Z,100771.28
2019-01-21T16:59:13.461Z,100769.03
2019-01-21T17:01:42.896Z,100768.73
2019-01-21T17:04:12.259Z,100775.66
2019-01-21T17:06:41.715Z,100769.23
2019-01-21T17:09:12.015Z,100765.58
2019-01-21T17:11:41.467Z,100769.58
2019-01-21T17:14:12.485Z,100762.14
2019-01-21T17:16:41.896Z,100758.20
2019-01-21T17:19:11.255Z,100765.50
2019-01-21T17:21:40.662Z,100769.92
2019-01-21T17:24:10.137Z,100765.20
2019-01-21T17:26:39.562Z,100769.23
2019-01-21T17:29:08.926Z,100767.70
2019-01-21T17:31:38.612Z,100762.42
2019-01-21T17:34:08.255Z,100764.20
2019-01-21T17:36:38.016Z,100763.64
2019-01-21T17:39:09.320Z,100755.98
2019-01-21T17:41:38.973Z,100759.53
2019-01-21T17:44:08.576Z,100756.08
2019-01-21T17:46:38.188Z,100756.84
2019-01-21T17:49:07.775Z,100761.50
2019-01-21T17:51:37.441Z,100755.16
2019-01-21T17:54:07.103Z,100753.38
2019-01-21T17:56:36.489Z,100751.25
2019-01-21T17:59:06.316Z,100755.20
2019-01-21T18:01:39.382Z,100746.69
2019-01-21T18:04:08.579Z,100747.05
2019-01-21T18:06:37.951Z,100739.39
2019-01-21T18:09:09.895Z,100742.80
2019-01-21T18:11:41.472Z,100743.60
2019-01-21T18:14:10.635Z,100736.48
2019-01-21T18:16:40.021Z,100737.02
2019-01-21T18:19:09.465Z,100739.70
2019-01-21T18:21:40.313Z,100738.08
2019-01-21T18:24:10.111Z,100740.70
2019-01-21T18:26:39.568Z,100737.84
2019-01-21T18:29:09.133Z,100745.86
2019-01-21T18:31:38.945Z,100741.62
2019-01-21T18:34:08.619Z,100738.06
2019-01-21T18:36:38.303Z,100749.63
2019-01-21T18:39:11.740Z,100748.07
2019-01-21T18:41:41.303Z,100754.46
2019-01-21T18:44:10.739Z,100751.29
2019-01-21T18:46:40.148Z,100751.56
2019-01-21T18:49:09.594Z,100743.39
2019-01-21T18:51:39.074Z,100738.36
2019-01-21T18:54:08.757Z,100731.72
2019-01-21T18:56:38.299Z,100734.05
2019-01-21T18:59:07.980Z,100732.20
2019-01-21T19:01:37.649Z,100740.16
2019-01-21T19:04:07.336Z,100734.94
2019-01-21T19:06:36.943Z,100739.45
2019-01-21T19:09:09.063Z,100736.97
2019-01-21T19:11:38.620Z,100733.17
2019-01-21T19:14:08.261Z,100730.19
2019-01-21T19:16:37.860Z,100735.19
2019-01-21T19:19:07.279Z,100733.20
2019-01-21T19:21:36.665Z,100730.19
2019-01-21T19:24:06.631Z,100733.34
2019-01-21T19:26:36.148Z,100731.72
2019-01-21T19:29:05.846Z,100727.99
2019-01-21T19:31:35.499Z,100733.81
2019-01-21T19:34:05.445Z,100734.21
2019-01-21T19:36:35.098Z,100729.64
2019-01-21T19:39:06.530Z,100737.30
2019-01-21T19:41:36.170Z,100729.95
2019-01-21T19:44:05.861Z,100721.23
2019-01-21T19:46:35.505Z,100730.22
2019-01-21T19:49:05.260Z,100731.77
2019-01-21T19:51:34.693Z,100721.29
2019-01-21T19:54:04.364Z,100720.41
2019-01-21T19:56:34.231Z,100726.02
2019-01-21T19:59:03.919Z,100722.25
2019-01-21T20:01:33.593Z,100722.05
2019-01-21T20:04:02.971Z,100717.83
2019-01-21T20:06:32.444Z,100726.39
2019-01-21T20:09:02.085Z,100723.08
2019-01-21T20:11:34.891Z,100725.92
2019-01-21T20:14:03.119Z,100722.58
2019-01-21T20:16:32.767Z,100718.91
2019-01-21T20:19:02.337Z,100720.34
2019-01-21T20:21:31.991Z,100717.59
2019-01-21T20:24:01.647Z,100716.55
2019-01-21T20:26:31.287Z,100721.11
2019-01-21T20:29:00.984Z,100711.30
2019-01-21T20:31:30.612Z,100702.94
2019-01-21T20:34:00.193Z,100702.42
2019-01-21T20:36:29.843Z,100697.58
2019-01-21T20:38:59.397Z,100694.58
2019-01-21T20:41:28.982Z,100702.37
2019-01-21T20:43:58.589Z,100700.27
2019-01-21T20:46:28.096Z,100699.30
2019-01-21T20:48:57.725Z,100698.78
2019-01-21T20:51:27.127Z,100694.41
2019-01-21T20:53:56.509Z,100690.73
2019-01-21T20:56:25.922Z,100683.38
2019-01-21T20:58:55.309Z,100682.44
2019-01-21T21:01:24.759Z,100683.45
2019-01-21T21:03:54.126Z,100681.55
2019-01-21T21:06:23.520Z,100672.77
2019-01-21T21:08:52.906Z,100673.86
2019-01-21T21:11:22.315Z,100673.36
2019-01-21T21:13:52.156Z,100676.73
2019-01-21T21:16:21.913Z,100672.71
2019-01-21T21:18:51.576Z,100673.64
2019-01-21T21:21:21.025Z,100676.72
2019-01-21T21:23:50.473Z,100674.03
2019-01-21T21:26:19.885Z,100677.89
2019-01-21T21:28:49.284Z,100665.50
2019-01-21T21:31:19.092Z,100665.50
2019-01-21T21:33:48.496Z,100660.75
2019-01-21T21:36:18.024Z,100665.38
2019-01-21T21:38:47.880Z,100663.54
2019-01-21T21:41:17.491Z,100657.48
2019-01-21T21:43:47.120Z,100653.00
2019-01-21T21:46:16.718Z,100657.86
2019-01-21T21:48:47.114Z,100656.20
2019-01-21T21:51:17.107Z,100658.44
2019-01-21T21:53:46.695Z,100664.27
2019-01-21T21:56:16.570Z,100656.72
2019-01-21T21:58:46.643Z,100659.22
2019-01-21T22:01:16.382Z,100655.38
2019-01-21T22:03:49.149Z,100653.61
2019-01-21T22:06:18.990Z,100654.86
2019-01-21T22:08:48.930Z,100653.27
2019-01-21T22:11:18.613Z,100649.58
2019-01-21T22:13:48.639Z,100656.03
2019-01-21T22:16:18.395Z,100656.39
2019-01-21T22:18:48.131Z,100653.20
2019-01-21T22:21:17.750Z,100646.22
2019-01-21T22:23:47.442Z,100646.30
2019-01-21T22:26:17.176Z,100640.37
2019-01-21T22:28:47.458Z,100644.00
2019-01-21T22:31:17.055Z,100642.70
2019-01-21T22:33:46.990Z,100639.45
2019-01-21T22:36:16.715Z,100635.70
2019-01-21T22:38:46.523Z,100636.78
2019-01-21T22:41:16.258Z,100636.22
2019-01-21T22:43:46.151Z,100634.72
2019-01-21T22:46:15.874Z,100640.20
2019-01-21T22:48:45.651Z,100638.32
2019-01-21T22:51:15.311Z,100632.38
2019-01-21T22:53:45.190Z,100628.30
2019-01-21T22:56:14.797Z,100626.61
2019-01-21T22:58:44.575Z,100626.22
2019-01-21T23:01:33.644Z,100628.20
2019-01-21T23:04:03.347Z,100627.41
2019-01-21T23:06:33.007Z,100623.30
2019-01-21T23:09:03.681Z,100628.47
2019-01-21T23:11:33.501Z,100616.34
2019-01-21T23:14:03.554Z,100616.37
2019-01-21T23:16:33.290Z,100611.84
2019-01-21T23:19:03.156Z,100611.59
2019-01-21T23:21:32.944Z,100620.36
2019-01-21T23:24:02.675Z,100612.63
2019-01-21T23:26:32.857Z,100611.92
2019-01-21T23:29:02.735Z,100602.93
2019-01-21T23:31:32.368Z,100596.20
2019-01-21T23:34:01.997Z,100600.06
2019-01-21T23:36:31.438Z,100599.55
2019-01-21T23:39:01.406Z,100591.50
2019-01-21T23:41:30.982Z,100593.17
2019-01-21T23:44:00.382Z,100594.28
2019-01-21T23:46:29.731Z,100588.72
2019-01-21T23:48:59.199Z,100585.05
2019-01-21T23:51:28.567Z,100583.98
2019-01-21T23:53:57.971Z,100585.87
2019-01-21T23:56:27.668Z,100582.73
2019-01-21T23:58:57.243Z,100579.58
